Latest Weather Observations for Forrest

IDW60801

Issued at 7:35 pm WST Sunday 21 September 2014 (issued every 30 minutes, with the page automatically refreshed every 10 minutes)

About weather observations | Map of weather stations | Latest weather observations for WA | Other Formats
Station Details ID: 011052 Name: FORREST Lat: -30.85 Lon: 128.11 Height: 159.0 m
Data from the previous 72 hours. | See also: Recent months at Forrest
Date/Time
WST
Temp
°C
App
Temp
°C
Dew
Point
Rel
Hum
%
Delta-T
°C
Wind Press
QNH
hPa
Press
MSL
hPa
Rain
since 9 am
mm
Dir
 
Spd
km/h
Gust
km/h
Spd
kts
Gust
kts
21/07:30pm 24.0 16.0 -2.5 17 11.6 NE 30 37 16 20 1015.3 - 0.0
21/07:00pm 24.6 16.6 -2.0 17 11.8 NE 30 35 16 19 1015.1 - 0.0
21/06:30pm 25.2 17.7 -1.6 17 12.1 NE 28 35 15 19 1014.9 - 0.0
21/06:00pm 26.3 18.8 -1.5 16 12.7 NE 28 32 15 17 1014.5 1014.4 0.0
21/05:30pm 27.7 19.8 -1.3 15 13.4 NNE 30 39 16 21 1014.2 - 0.0
21/05:00pm 29.1 19.7 -0.1 15 13.9 NNE 39 52 21 28 1013.9 - 0.0
21/04:30pm 30.2 20.8 -0.2 14 14.6 NNE 39 52 21 28 1013.8 - 0.0
21/04:00pm 30.8 21.1 0.2 14 14.8 NNE 41 52 22 28 1013.8 - 0.0
21/03:30pm 31.3 21.6 0.6 14 15.0 NNE 41 52 22 28 1013.9 - 0.0
21/03:00pm 31.5 22.2 0.8 14 15.1 NNE 39 52 21 28 1014.1 1014.0 0.0
21/02:30pm 31.7 22.1 1.0 14 15.2 NNE 41 54 22 29 1014.2 - 0.0
21/02:00pm 31.7 22.1 1.0 14 15.2 NNE 41 54 22 29 1014.4 - 0.0
21/01:53pm 31.7 22.5 1.0 14 15.2 NNE 39 54 21 29 1014.6 - 0.0
21/01:30pm 31.6 22.0 0.9 14 15.2 N 41 54 22 29 1015.0 - 0.0
21/01:10pm 31.2 22.3 0.6 14 15.0 NNE 37 56 20 30 1015.2 - 0.0
21/01:00pm 31.1 21.4 0.5 14 15.0 NNE 41 52 22 28 1015.4 - 0.0
21/12:30pm 30.9 21.7 1.3 15 14.6 N 39 52 21 28 1016.0 - 0.0
21/12:00pm 31.3 22.8 0.6 14 15.0 N 35 48 19 26 1016.8 1016.8 0.0
21/11:30am 30.5 21.3 1.0 15 14.5 NNE 39 56 21 30 1017.4 - 0.0
21/11:00am 30.1 20.4 0.6 15 14.3 NNE 41 52 22 28 1018.3 - 0.0
21/10:30am 29.5 21.4 3.5 19 13.2 NNE 35 48 19 26 1018.8 - 0.0
21/10:00am 27.1 19.7 4.8 24 11.4 NNE 33 43 18 23 1019.6 - 0.0
21/09:30am 25.9 18.9 6.0 28 10.4 NNE 32 41 17 22 1020.2 - 0.0
21/09:00am 23.9 16.8 6.2 32 9.1 NNE 33 43 18 23 1020.7 1020.6 0.0
21/08:30am 22.0 14.6 6.7 37 7.9 NNE 35 43 19 23 1021.0 - 0.0
21/08:00am 19.5 12.8 7.3 45 6.2 NNE 32 39 17 21 1021.3 - 0.0
21/07:30am 16.5 10.7 8.0 57 4.3 NE 28 35 15 19 1021.5 - 0.0
21/07:00am 13.5 8.5 8.1 70 2.7 NE 24 30 13 16 1021.7 - 0.0
21/06:30am 10.8 7.6 8.4 85 1.2 NE 15 17 8 9 1021.8 - 0.0
21/06:00am 8.3 5.6 7.2 93 0.5 NE 11 15 6 8 1021.8 1021.7 0.0
21/05:30am 6.5 3.0 5.6 94 0.4 ENE 13 15 7 8 1021.6 - 0.0
21/05:00am 6.4 2.9 5.4 93 0.4 ENE 13 15 7 8 1021.4 - 0.0
21/04:30am 7.0 4.0 5.9 93 0.5 NE 11 13 6 7 1021.3 - 0.0
21/04:00am 7.3 4.3 6.2 93 0.5 ENE 11 13 6 7 1021.3 - 0.0
21/03:30am 7.8 4.5 6.6 92 0.6 ENE 13 13 7 7 1021.2 - 0.0
21/03:00am 8.1 5.2 6.7 91 0.6 NE 11 13 6 7 1021.3 1021.2 0.0
21/02:30am 9.2 5.8 7.8 91 0.7 E 15 17 8 9 1021.2 - 0.0
21/02:00am 9.1 5.7 7.7 91 0.7 ENE 15 17 8 9 1021.4 - 0.0
21/01:30am 9.5 6.5 7.9 90 0.8 ENE 13 15 7 8 1021.8 - 0.0
21/01:00am 10.4 7.6 8.7 89 0.8 ENE 13 15 7 8 1022.1 - 0.0
21/12:30am 11.1 8.1 9.2 88 1.0 ENE 15 20 8 11 1022.3 - 0.0
21/12:00am 11.5 7.7 9.2 86 1.2 E 19 22 10 12 1022.5 1022.5 0.0
 
Date/Time
WST
Temp
°C
App
Temp
°C
Dew
Point
Rel
Hum
%
Delta-T
°C
Wind Press
QNH
hPa
Press
MSL
hPa
Rain
since 9 am
mm
Dir
 
Spd
km/h
Gust
km/h
Spd
kts
Gust
kts
20/11:30pm 11.7 7.7 8.9 83 1.4 E 20 24 11 13 1022.5 - 0.0
20/11:00pm 11.9 7.7 8.4 79 1.7 E 20 26 11 14 1022.5 - 0.0
20/10:30pm 12.0 7.9 7.7 75 2.1 E 19 24 10 13 1022.6 - 0.0
20/10:00pm 12.3 8.7 6.8 69 2.7 E 15 19 8 10 1022.9 - 0.0
20/09:30pm 12.8 9.0 5.9 63 3.3 ESE 15 19 8 10 1023.1 - 0.0
20/09:00pm 13.8 9.6 5.7 58 3.8 ESE 17 22 9 12 1023.1 1023.1 0.0
20/08:30pm 14.5 9.8 5.3 54 4.4 ESE 19 24 10 13 1023.1 - 0.0
20/08:00pm 15.5 10.6 5.1 50 5.0 ESE 20 28 11 15 1023.0 - 0.0
20/07:30pm 16.3 10.6 5.0 47 5.4 ESE 24 32 13 17 1022.6 - 0.0
20/07:00pm 17.2 11.6 5.2 45 5.8 ESE 24 35 13 19 1022.4 - 0.0
20/06:30pm 18.5 12.1 5.0 41 6.6 SE 28 39 15 21 1022.0 - 0.0
20/06:00pm 19.8 12.3 3.5 34 7.7 SE 32 41 17 22 1021.5 1021.4 0.0
20/05:30pm 21.7 15.0 3.9 31 8.7 SE 28 41 15 22 1021.2 - 0.0
20/05:29pm 21.8 15.1 3.9 31 8.7 SE 28 41 15 22 1021.2 - 0.0
20/05:00pm 24.2 19.6 1.8 23 10.7 SE 15 20 8 11 1021.0 - 0.0
20/04:30pm 25.3 21.7 0.7 20 11.6 SE 9 15 5 8 1020.7 - 0.0
20/04:00pm 26.1 22.4 0.0 18 12.2 SE 9 15 5 8 1020.4 - 0.0
20/03:30pm 25.9 22.1 -1.0 17 12.3 SSW 9 15 5 8 1020.3 - 0.0
20/03:00pm 26.2 22.5 0.0 18 12.2 SE 9 13 5 7 1020.4 1020.3 0.0
20/02:30pm 26.7 22.7 0.4 18 12.4 ESE 11 20 6 11 1020.3 - 0.0
20/02:00pm 25.6 21.7 1.0 20 11.7 SSE 11 19 6 10 1020.4 - 0.0
20/01:30pm 26.2 21.5 0.8 19 12.1 SE 15 26 8 14 1020.5 - 0.0
20/01:00pm 25.7 21.8 1.1 20 11.7 SE 11 20 6 11 1020.8 - 0.0
20/12:30pm 25.0 20.9 2.4 23 11.0 SE 13 20 7 11 1021.1 - 0.0
20/12:00pm 24.8 21.4 4.0 26 10.3 E 11 19 6 10 1021.5 1021.4 0.0
20/11:30am 23.9 21.0 4.8 29 9.6 E 9 17 5 9 1021.9 - 0.0
20/11:00am 23.2 20.9 5.6 32 8.9 E 7 17 4 9 1022.3 - 0.0
20/10:30am 22.0 19.0 5.8 35 8.2 SE 11 20 6 11 1022.9 - 0.0
20/10:00am 22.1 18.9 6.7 37 7.9 ESE 13 20 7 11 1023.2 - 0.0
20/09:30am 20.7 17.7 7.7 43 6.8 ESE 13 20 7 11 1023.5 - 0.0
20/09:00am 19.8 16.1 7.9 46 6.1 SE 17 22 9 12 1023.7 1023.7 0.0
20/08:30am 18.3 14.7 8.3 52 5.2 SE 17 22 9 12 1023.8 - 0.0
20/08:00am 17.1 14.0 8.8 58 4.3 SE 15 19 8 10 1023.9 - 0.0
20/07:30am 15.5 12.2 9.4 67 3.2 SE 17 22 9 12 1023.8 - 0.0
20/07:00am 14.1 11.1 9.3 73 2.5 SSE 15 20 8 11 1023.9 - 0.0
20/06:30am 11.5 8.3 6.8 73 2.3 SSE 13 17 7 9 1023.8 - 0.0
20/06:00am 8.5 5.4 5.4 81 1.4 SSE 11 13 6 7 1023.6 1023.6 0.0
20/05:30am 7.1 3.4 4.2 82 1.3 S 13 17 7 9 1023.4 - 0.0
20/05:00am 7.4 3.2 4.0 79 1.5 S 15 17 8 9 1023.2 - 0.0
20/04:30am 7.8 3.7 4.2 78 1.6 S 15 19 8 10 1022.8 - 0.0
20/04:00am 8.0 3.5 4.4 78 1.6 S 17 20 9 11 1022.4 - 0.0
20/03:30am 8.2 3.7 4.4 77 1.7 S 17 20 9 11 1021.9 - 0.0
20/03:00am 8.0 4.3 4.2 77 1.7 SSW 13 15 7 8 1021.6 1021.5 0.0
20/02:30am 8.4 4.3 4.6 77 1.7 SSW 15 17 8 9 1021.6 - 0.0
20/02:00am 8.7 4.6 4.3 74 1.9 SSW 15 15 8 8 1021.4 - 0.0
20/01:30am 9.4 5.7 4.6 72 2.2 SSW 13 15 7 8 1021.4 - 0.0
20/01:00am 9.7 6.4 4.7 71 2.3 S 11 13 6 7 1021.4 - 0.0
20/12:30am 10.5 7.6 4.9 68 2.6 SSE 9 9 5 5 1021.2 - 0.0
20/12:00am 11.1 8.3 5.2 67 2.7 SSE 9 11 5 6 1021.4 1021.3 0.0
 
Date/Time
WST
Temp
°C
App
Temp
°C
Dew
Point
Rel
Hum
%
Delta-T
°C
Wind Press
QNH
hPa
Press
MSL
hPa
Rain
since 9 am
mm
Dir
 
Spd
km/h
Gust
km/h
Spd
kts
Gust
kts
19/11:30pm 11.5 8.8 5.4 66 2.8 SSE 9 9 5 5 1021.4 - 0.0
19/11:00pm 11.5 8.7 5.2 65 2.9 SSW 9 13 5 7 1021.5 - 0.0
19/10:30pm 12.6 10.2 5.3 61 3.4 SSE 7 9 4 5 1021.5 - 0.0
19/10:00pm 13.3 10.6 5.7 60 3.6 SE 9 11 5 6 1021.6 - 0.0
19/09:30pm 13.6 11.0 6.0 60 3.6 SE 9 11 5 6 1021.5 - 0.0
19/09:00pm 13.7 10.6 5.6 58 3.8 SE 11 13 6 7 1021.5 1021.4 0.0
19/08:30pm 14.8 11.8 6.1 56 4.2 SE 11 15 6 8 1021.3 - 0.0
19/08:00pm 15.4 12.4 5.9 53 4.6 SE 11 15 6 8 1021.7 - 0.0
19/07:30pm 16.5 12.4 6.1 50 5.1 SE 17 20 9 11 1021.3 - 0.0
19/07:00pm 17.4 12.0 6.3 48 5.5 SE 24 32 13 17 1020.7 - 0.0
19/06:30pm 18.5 12.3 6.0 44 6.2 SE 28 37 15 20 1020.0 - 0.0
19/06:00pm 19.8 13.7 6.5 42 6.7 SE 28 37 15 20 1019.0 1018.9 0.0
19/05:30pm 21.9 14.9 6.2 36 8.0 SE 32 44 17 24 1018.1 - 0.0
19/05:00pm 24.5 17.8 5.8 30 9.6 SE 30 46 16 25 1017.4 - 0.0
19/04:30pm 26.7 22.4 5.1 25 11.1 S 17 26 9 14 1017.1 - 0.0
19/04:00pm 27.1 22.5 5.4 25 11.3 SSW 19 26 10 14 1016.8 - 0.0
19/03:30pm 27.4 22.6 5.6 25 11.4 S 20 28 11 15 1016.8 - 0.0
19/03:00pm 27.5 24.2 6.3 26 11.2 SW 13 20 7 11 1016.8 1016.8 0.0
19/02:30pm 27.2 23.8 6.0 26 11.1 SSW 13 20 7 11 1016.7 - 0.0
19/02:00pm 26.6 22.7 5.5 26 10.9 SSW 15 22 8 12 1016.9 - 0.0
19/01:30pm 27.0 24.1 6.4 27 10.9 SSE 11 20 6 11 1017.2 - 0.0
19/01:00pm 26.5 25.2 6.0 27 10.7 S 2 7 1 4 1017.2 - 0.0
19/12:30pm 25.5 22.4 5.7 28 10.2 NNE 11 17 6 9 1017.4 - 0.0
19/12:00pm 24.8 21.4 6.1 30 9.7 ENE 13 22 7 12 1017.9 1017.9 0.0
19/11:30am 24.1 20.3 5.9 31 9.3 E 15 24 8 13 1018.4 - 0.0
19/11:00am 23.5 19.5 6.7 34 8.7 ENE 17 26 9 14 1018.8 - 0.0
19/10:30am 22.4 18.4 6.6 36 8.1 ENE 17 22 9 12 1019.2 - 0.0
19/10:00am 21.6 17.1 7.1 39 7.5 ENE 20 32 11 17 1019.6 - 0.0
19/09:30am 20.2 14.9 6.9 42 6.8 NE 24 30 13 16 1019.7 - 0.0
19/09:00am 19.0 13.7 6.8 45 6.2 ENE 24 30 13 16 1020.0 1019.9 0.2
19/08:30am 17.5 12.2 6.7 49 5.4 ENE 24 30 13 16 1020.2 - 0.2
19/08:00am 16.0 10.3 6.7 54 4.6 ENE 26 32 14 17 1020.4 - 0.2
19/07:30am 13.7 8.5 7.2 65 3.2 E 24 28 13 15 1020.4 - 0.2
19/07:00am 11.2 6.9 6.9 75 2.1 E 19 24 10 13 1020.3 - 0.2
19/06:30am 9.5 4.9 6.6 82 1.4 E 20 24 11 13 1020.3 - 0.2
19/06:00am 8.6 4.5 6.4 86 1.0 E 17 20 9 11 1020.1 1020.0 0.2
19/05:30am 7.6 3.8 5.9 89 0.8 E 15 19 8 10 1019.8 - 0.2
19/05:00am 7.3 3.5 5.9 91 0.6 E 15 17 8 9 1019.6 - 0.2
19/04:30am 7.3 3.9 5.8 90 0.7 E 13 15 7 8 1019.6 - 0.2
19/04:00am 7.4 4.0 5.7 89 0.8 E 13 13 7 7 1019.6 - 0.2
19/03:30am 8.0 4.6 6.1 88 0.9 E 13 15 7 8 1019.4 - 0.2
19/03:00am 8.4 4.7 6.5 88 0.9 E 15 17 8 9 1019.2 1019.1 0.2
19/02:30am 8.6 5.0 6.6 87 0.9 E 15 15 8 8 1019.0 - 0.2
19/02:00am 8.9 5.3 6.9 87 0.9 E 15 17 8 9 1019.1 - 0.2
19/01:30am 9.0 5.5 7.0 87 0.9 E 15 17 8 9 1019.3 - 0.2
19/01:00am 9.2 5.7 7.0 86 1.0 E 15 17 8 9 1019.6 - 0.2
19/12:30am 9.6 6.5 7.2 85 1.1 E 13 15 7 8 1019.9 - 0.2
19/12:00am 10.2 7.1 7.4 83 1.3 E 13 15 7 8 1020.2 1020.1 0.2
 
Date/Time
WST
Temp
°C
App
Temp
°C
Dew
Point
Rel
Hum
%
Delta-T
°C
Wind Press
QNH
hPa
Press
MSL
hPa
Rain
since 9 am
mm
Dir
 
Spd
km/h
Gust
km/h
Spd
kts
Gust
kts
18/11:30pm 10.7 6.9 7.6 81 1.5 E 17 20 9 11 1020.3 - 0.2
18/11:00pm 11.0 7.2 7.5 79 1.7 E 17 22 9 12 1020.7 - 0.2
18/10:30pm 11.3 7.5 7.4 77 1.9 E 17 20 9 11 1020.7 - 0.2
18/10:00pm 11.7 7.5 7.4 75 2.1 E 19 24 10 13 1020.6 - 0.2
18/09:30pm 12.2 7.4 7.5 73 2.3 E 22 28 12 15 1020.8 - 0.2
18/09:00pm 12.8 8.0 7.3 69 2.7 E 22 28 12 15 1020.9 1020.8 0.2
18/08:30pm 13.5 8.3 7.1 65 3.1 E 24 33 13 18 1020.8 - 0.2
18/08:00pm 13.9 9.3 6.7 62 3.5 SE 20 30 11 16 1020.7 - 0.2

Other Formats:

Comma delimited format used in spreadsheet applications
http://www.bom.gov.au/fwo/IDW60801/IDW60801.95646.axf

JavaScript Object Notation format (JSON) in row-major order
http://www.bom.gov.au/fwo/IDW60801/IDW60801.95646.json